Time,TemperatureF,DewpointF,PressureIn,WindDirection,WindDirectionDegrees,WindSpeedMPH,WindSpeedGustMPH,Humidity,HourlyPrecipIn,Conditions,Clouds,dailyrainin,SolarRadiationWatts/m^2,SoftwareType,DateUTC
2013-04-30 00:21:00,27.0,11.0,-100.00,WNW,300,5.0,24.0,51,-99.99,,,0.29,0.000000,,2013-04-30 06:21:00,
2013-04-30 00:32:00,27.0,11.0,-100.00,WNW,300,5.0,24.0,51,-99.99,,,0.29,0.000000,,2013-04-30 06:32:00,
2013-04-30 00:42:00,27.0,11.0,-100.00,WNW,300,5.0,24.0,51,-99.99,,,0.29,0.000000,,2013-04-30 06:42:00,
2013-04-30 00:52:00,27.0,11.0,-100.00,WNW,300,5.0,24.0,51,-99.99,,,0.29,0.000000,,2013-04-30 06:52:00,
2013-04-30 01:01:00,27.0,11.0,-100.00,WNW,300,5.0,24.0,51,-99.99,,,0.29,0.000000,,2013-04-30 07:01:00,
2013-04-30 02:32:00,25.0,10.0,-100.00,NW,323,3.0,17.0,53,-99.99,,,0.29,0.000000,,2013-04-30 08:32:00,
2013-04-30 02:42:00,25.0,10.0,-100.00,NW,323,3.0,17.0,53,-99.99,,,0.29,0.000000,,2013-04-30 08:42:00,
2013-04-30 02:52:00,25.0,10.0,-100.00,NW,323,3.0,17.0,53,-99.99,,,0.29,0.000000,,2013-04-30 08:52:00,
2013-04-30 03:01:00,25.0,10.0,-100.00,NW,323,3.0,17.0,53,-99.99,,,0.29,0.000000,,2013-04-30 09:01:00,
2013-04-30 03:02:00,25.0,9.0,-100.00,WNW,302,5.0,13.0,50,0.00,,,0.29,0.000000,,2013-04-30 09:02:00,
2013-04-30 03:22:00,25.0,9.0,-100.00,WNW,302,5.0,13.0,50,0.00,,,0.29,0.000000,,2013-04-30 09:22:00,
2013-04-30 03:33:00,25.0,9.0,-100.00,WNW,302,5.0,13.0,50,0.00,,,0.29,0.000000,,2013-04-30 09:33:00,
2013-04-30 03:43:00,25.0,9.0,-100.00,WNW,302,5.0,13.0,50,0.00,,,0.29,0.000000,,2013-04-30 09:43:00,
2013-04-30 03:52:00,25.0,9.0,-100.00,WNW,302,5.0,13.0,50,0.00,,,0.29,0.000000,,2013-04-30 09:52:00,
2013-04-30 05:21:00,22.0,8.0,-100.00,NW,316,2.0,4.0,55,-99.99,,,0.27,0.000000,,2013-04-30 11:21:00,
2013-04-30 05:32:00,22.0,8.0,-100.00,NW,316,2.0,4.0,55,-99.99,,,0.27,0.000000,,2013-04-30 11:32:00,
2013-04-30 05:42:00,22.0,8.0,-100.00,NW,316,2.0,4.0,55,-99.99,,,0.27,0.000000,,2013-04-30 11:42:00,
2013-04-30 05:51:00,22.0,8.0,-100.00,NW,316,2.0,4.0,55,-99.99,,,0.27,0.000000,,2013-04-30 11:51:00,
2013-04-30 06:01:00,22.0,8.0,-100.00,NW,316,2.0,4.0,55,-99.99,,,0.27,0.000000,,2013-04-30 12:01:00,
2013-04-30 10:02:00,29.0,12.0,-100.00,NW,326,5.0,11.0,48,-99.99,,,0.13,111.000000,,2013-04-30 16:02:00,
2013-04-30 10:23:00,29.0,12.0,-100.00,NW,326,5.0,11.0,48,-99.99,,,0.13,111.000000,,2013-04-30 16:23:00,
2013-04-30 10:33:00,29.0,12.0,-100.00,NW,326,5.0,11.0,48,-99.99,,,0.13,111.000000,,2013-04-30 16:33:00,
2013-04-30 10:42:00,29.0,12.0,-100.00,NW,326,5.0,11.0,48,-99.99,,,0.13,111.000000,,2013-04-30 16:42:00,
2013-04-30 10:52:00,29.0,12.0,-100.00,NW,326,5.0,11.0,48,-99.99,,,0.13,111.000000,,2013-04-30 16:52:00,
2013-04-30 12:32:00,32.0,13.0,-100.00,SE,143,4.0,8.0,44,-99.99,,,0.11,240.000000,,2013-04-30 18:32:00,
2013-04-30 12:42:00,32.0,13.0,-100.00,SE,143,4.0,8.0,44,-99.99,,,0.11,240.000000,,2013-04-30 18:42:00,
2013-04-30 12:52:00,32.0,13.0,-100.00,SE,143,4.0,8.0,44,-99.99,,,0.11,240.000000,,2013-04-30 18:52:00,
2013-04-30 13:01:00,32.0,13.0,-100.00,SE,143,4.0,8.0,44,-99.99,,,0.11,240.000000,,2013-04-30 19:01:00,
2013-04-30 13:22:00,36.0,18.0,-100.00,WSW,244,4.0,9.0,48,0.00,,,0.11,335.000000,,2013-04-30 19:22:00,
2013-04-30 13:32:00,36.0,18.0,-100.00,WSW,244,4.0,9.0,48,0.00,,,0.11,335.000000,,2013-04-30 19:32:00,
2013-04-30 13:42:00,36.0,18.0,-100.00,WSW,244,4.0,9.0,48,0.00,,,0.11,335.000000,,2013-04-30 19:42:00,
2013-04-30 13:52:00,36.0,18.0,-100.00,WSW,244,4.0,9.0,48,0.00,,,0.11,335.000000,,2013-04-30 19:52:00,
2013-04-30 14:01:00,36.0,18.0,-100.00,WSW,244,4.0,9.0,48,0.00,,,0.11,335.000000,,2013-04-30 20:01:00,
2013-04-30 14:32:00,28.0,12.0,-100.00,NW,315,5.0,11.0,51,0.00,,,0.10,583.000000,,2013-04-30 20:32:00,
2013-04-30 14:42:00,28.0,12.0,-100.00,NW,315,5.0,11.0,51,0.00,,,0.10,583.000000,,2013-04-30 20:42:00,
2013-04-30 14:52:00,28.0,12.0,-100.00,NW,315,5.0,11.0,51,0.00,,,0.10,583.000000,,2013-04-30 20:52:00,
2013-04-30 15:01:00,28.0,12.0,-100.00,NW,315,5.0,11.0,51,0.00,,,0.10,583.000000,,2013-04-30 21:01:00,
2013-04-30 15:02:00,33.0,19.0,-100.00,SSE,156,4.0,9.0,55,0.00,,,0.10,546.000000,,2013-04-30 21:02:00,
2013-04-30 15:32:00,33.0,19.0,-100.00,SSE,156,4.0,9.0,55,0.00,,,0.10,546.000000,,2013-04-30 21:32:00,
2013-04-30 15:42:00,33.0,19.0,-100.00,SSE,156,4.0,9.0,55,0.00,,,0.10,546.000000,,2013-04-30 21:42:00,
2013-04-30 15:53:00,33.0,19.0,-100.00,SSE,156,4.0,9.0,55,0.00,,,0.10,546.000000,,2013-04-30 21:53:00,
2013-04-30 16:02:00,33.0,17.0,-100.00,NE,38,4.0,14.0,52,0.00,,,0.06,389.000000,,2013-04-30 22:02:00,
2013-04-30 16:23:00,33.0,17.0,-100.00,NE,38,4.0,14.0,52,0.00,,,0.06,389.000000,,2013-04-30 22:23:00,
2013-04-30 16:33:00,33.0,17.0,-100.00,NE,38,4.0,14.0,52,0.00,,,0.06,389.000000,,2013-04-30 22:33:00,
2013-04-30 16:42:00,33.0,17.0,-100.00,NE,38,4.0,14.0,52,0.00,,,0.06,389.000000,,2013-04-30 22:42:00,
2013-04-30 16:53:00,33.0,17.0,-100.00,NE,38,4.0,14.0,52,0.00,,,0.06,389.000000,,2013-04-30 22:53:00,
2013-04-30 17:22:00,30.0,21.0,-100.00,SSE,162,2.0,11.0,70,0.00,,,0.05,377.000000,,2013-04-30 23:22:00,
2013-04-30 17:32:00,30.0,21.0,-100.00,SSE,162,2.0,11.0,70,0.00,,,0.05,377.000000,,2013-04-30 23:32:00,
2013-04-30 17:42:00,30.0,21.0,-100.00,SSE,162,2.0,11.0,70,0.00,,,0.05,377.000000,,2013-04-30 23:42:00,
2013-04-30 17:52:00,30.0,21.0,-100.00,SSE,162,2.0,11.0,70,0.00,,,0.05,377.000000,,2013-04-30 23:52:00,
2013-04-30 18:01:00,30.0,21.0,-100.00,SSE,162,2.0,11.0,70,0.00,,,0.05,377.000000,,2013-05-01 00:01:00,
2013-04-30 18:22:00,32.0,23.0,-100.00,SSE,150,3.0,7.0,68,0.00,,,0.04,279.000000,,2013-05-01 00:22:00,
2013-04-30 18:32:00,32.0,23.0,-100.00,SSE,150,3.0,7.0,68,0.00,,,0.04,279.000000,,2013-05-01 00:32:00,
2013-04-30 18:42:00,32.0,23.0,-100.00,SSE,150,3.0,7.0,68,0.00,,,0.04,279.000000,,2013-05-01 00:42:00,
2013-04-30 18:52:00,32.0,23.0,-100.00,SSE,150,3.0,7.0,68,0.00,,,0.04,279.000000,,2013-05-01 00:52:00,
2013-04-30 19:01:00,32.0,23.0,-100.00,SSE,150,3.0,7.0,68,0.00,,,0.04,279.000000,,2013-05-01 01:01:00,
2013-04-30 19:32:00,28.0,21.0,-100.00,ESE,107,2.0,8.0,75,0.00,,,-99.99,136.000000,,2013-05-01 01:32:00,
2013-04-30 19:42:00,28.0,21.0,-100.00,ESE,107,2.0,8.0,75,0.00,,,-99.99,136.000000,,2013-05-01 01:42:00,
2013-04-30 19:52:00,28.0,21.0,-100.00,ESE,107,2.0,8.0,75,0.00,,,-99.99,136.000000,,2013-05-01 01:52:00,
2013-04-30 20:01:00,28.0,21.0,-100.00,ESE,107,2.0,8.0,75,0.00,,,-99.99,136.000000,,2013-05-01 02:01:00,
2013-04-30 20:22:00,28.0,21.0,-100.00,East,82,2.0,4.0,74,0.00,,,0.04,45.000000,,2013-05-01 02:22:00,
2013-04-30 20:32:00,28.0,21.0,-100.00,East,82,2.0,4.0,74,0.00,,,0.04,45.000000,,2013-05-01 02:32:00,
2013-04-30 20:42:00,28.0,21.0,-100.00,East,82,2.0,4.0,74,0.00,,,0.04,45.000000,,2013-05-01 02:42:00,
2013-04-30 20:52:00,28.0,21.0,-100.00,East,82,2.0,4.0,74,0.00,,,0.04,45.000000,,2013-05-01 02:52:00,
2013-04-30 21:01:00,28.0,21.0,-100.00,East,82,2.0,4.0,74,0.00,,,0.04,45.000000,,2013-05-01 03:01:00,
2013-04-30 21:02:00,26.0,19.0,-100.00,SE,141,1.0,5.0,75,0.00,,,-99.99,51.000000,,2013-05-01 03:02:00,
2013-04-30 21:22:00,26.0,19.0,-100.00,SE,141,1.0,5.0,75,0.00,,,-99.99,51.000000,,2013-05-01 03:22:00,
2013-04-30 21:33:00,26.0,19.0,-100.00,SE,141,1.0,5.0,75,0.00,,,-99.99,51.000000,,2013-05-01 03:33:00,
2013-04-30 21:43:00,26.0,19.0,-100.00,SE,141,1.0,5.0,75,0.00,,,-99.99,51.000000,,2013-05-01 03:43:00,
2013-04-30 21:53:00,26.0,19.0,-100.00,SE,141,1.0,5.0,75,0.00,,,-99.99,51.000000,,2013-05-01 03:53:00,
2013-04-30 22:02:00,24.0,20.0,-100.00,SSW,210,1.0,4.0,83,0.00,,,-99.99,0.000000,,2013-05-01 04:02:00,
2013-04-30 22:22:00,24.0,20.0,-100.00,SSW,210,1.0,4.0,83,0.00,,,-99.99,0.000000,,2013-05-01 04:22:00,
2013-04-30 22:32:00,24.0,20.0,-100.00,SSW,210,1.0,4.0,83,0.00,,,-99.99,0.000000,,2013-05-01 04:32:00,
2013-04-30 22:43:00,24.0,20.0,-100.00,SSW,210,1.0,4.0,83,0.00,,,-99.99,0.000000,,2013-05-01 04:43:00,
2013-04-30 22:52:00,24.0,20.0,-100.00,SSW,210,1.0,4.0,83,0.00,,,-99.99,0.000000,,2013-05-01 04:52:00,
2013-04-30 23:32:00,24.0,21.0,-100.00,SSE,159,1.0,2.0,89,0.00,,,-99.99,0.000000,,2013-05-01 05:32:00,
2013-04-30 23:42:00,24.0,21.0,-100.00,SSE,159,1.0,2.0,89,0.00,,,-99.99,0.000000,,2013-05-01 05:42:00,
2013-04-30 23:52:00,24.0,21.0,-100.00,SSE,159,1.0,2.0,89,0.00,,,-99.99,0.000000,,2013-05-01 05:52:00,